WEATHER

Warnervale Skycam

North West View

North West View

South West View

South West View

Sydney Airport Forecast

  • YSSY TAF

    TAF YSSY 262315Z 2700/2806 20020G30KT 9999 -SHRA SCT008 BKN020 FM271200 22015G25KT 9999 -SHRA SCT008 BKN020 FM272000 22020G30KT 9999 -SHRA SCT010 BKN020 TEMPO 2700/2803 4000 SHRA BKN008 RMK FM270000 MOD TURB BLW 5000FT T 17 16 15 14 Q 998 996 997 998

  • YSSY METAR

    TTF SPECI YSSY 270100Z 21023KT 5000 -DZ FEW008 BKN011 16/15 Q0998 RMK RF00.0/000.0 FM0200 20020G30KT 9999 -SHRA SCT008 BKN020 TEMPO 0200/0400 4000 SHRA BKN008 FM0100 MOD TURB BLW 5000FT

All information provided on this page is for general information and should NOT be used for flight planning.